Time;durP1;ratioP1;P1;durP2;ratioP2;P2;SDS_P1;SDS_P2;PMS_P1;PMS_P2;Temp;Humidity;BMP_temperature;BMP_pressure;BME280_temperature;BME280_humidity;BME280_pressure;Samples;Min_cycle;Max_cycle;Signal;HPM_P1;HPM_P2
2021/09/11 00:02:19;;;;;;;10.10;4.93;;;16.80;99.90;;;;;;4989628;28;20359;-57
2021/09/11 00:04:46;;;;;;;10.57;5.35;;;16.70;99.90;;;;;;4989331;28;20048;-58
2021/09/11 00:07:13;;;;;;;13.07;5.10;;;16.70;99.90;;;;;;4989734;28;20077;-59
2021/09/11 00:09:39;;;;;;;15.00;5.28;;;16.70;99.90;;;;;;4989280;28;20126;-56
2021/09/11 00:12:06;;;;;;;11.32;5.95;;;16.60;99.90;;;;;;4989328;28;20101;-54
2021/09/11 00:14:31;;;;;;;13.25;4.93;;;16.70;99.90;;;;;;4985960;28;20026;-55
2021/09/11 00:16:57;;;;;;;13.80;4.85;;;16.70;99.90;;;;;;4989531;28;20045;-59
2021/09/11 00:19:22;;;;;;;9.38;5.45;;;16.70;99.90;;;;;;4984019;28;20026;-60
2021/09/11 00:21:48;;;;;;;8.43;5.28;;;16.70;99.90;;;;;;4981756;28;20045;-58
2021/09/11 00:24:14;;;;;;;15.07;5.55;;;16.70;99.90;;;;;;4982005;28;20035;-57
2021/09/11 00:26:39;;;;;;;14.15;6.47;;;16.70;99.90;;;;;;4983140;28;20041;-58
2021/09/11 00:29:05;;;;;;;11.27;5.18;;;16.70;99.90;;;;;;4989502;28;20493;-56
2021/09/11 00:31:31;;;;;;;13.23;6.18;;;16.70;99.90;;;;;;4993569;28;20053;-57
2021/09/11 00:33:56;;;;;;;11.00;6.20;;;16.70;99.90;;;;;;4992071;28;20101;-56
2021/09/11 00:36:22;;;;;;;11.63;5.53;;;16.70;99.90;;;;;;4988281;28;20033;-58
2021/09/11 00:38:48;;;;;;;9.77;5.70;;;16.70;99.90;;;;;;4992776;28;20098;-58
2021/09/11 00:41:13;;;;;;;13.52;5.68;;;16.70;99.90;;;;;;4992121;28;20026;-58
2021/09/11 00:43:48;;;;;;;11.45;4.53;;;16.70;99.90;;;;;;4990895;28;20079;-57
2021/09/11 00:46:14;;;;;;;8.45;5.18;;;16.60;99.90;;;;;;4992679;28;20081;-56
2021/09/11 00:48:40;;;;;;;15.77;5.65;;;16.60;99.90;;;;;;4992488;28;20038;-57
2021/09/11 00:51:06;;;;;;;11.52;4.82;;;16.60;99.90;;;;;;4990260;28;20037;-58
2021/09/11 00:53:31;;;;;;;9.93;5.30;;;16.60;99.90;;;;;;4992597;28;20033;-57
2021/09/11 00:55:58;;;;;;;13.55;5.38;;;16.60;99.90;;;;;;4990540;28;20510;-56
2021/09/11 00:58:25;;;;;;;13.05;5.88;;;16.60;99.90;;;;;;4987969;28;20058;-58
2021/09/11 01:00:50;;;;;;;8.98;5.32;;;16.60;99.90;;;;;;4990633;28;20109;-58
2021/09/11 01:03:16;;;;;;;11.82;4.63;;;16.50;99.90;;;;;;4987895;28;20144;-56
2021/09/11 01:05:44;;;;;;;11.15;6.57;;;16.50;99.90;;;;;;4983054;28;20027;-57
2021/09/11 01:08:10;;;;;;;8.18;5.72;;;16.50;99.90;;;;;;4989439;28;20092;-58
2021/09/11 01:10:40;;;;;;;12.77;6.32;;;16.50;99.90;;;;;;4991748;28;20513;-57
2021/09/11 01:13:11;;;;;;;10.93;5.25;;;16.60;99.90;;;;;;4991328;28;20122;-58
2021/09/11 01:15:40;;;;;;;7.10;5.70;;;16.60;99.90;;;;;;4991057;28;20022;-58
2021/09/11 01:18:08;;;;;;;14.77;5.90;;;16.60;99.90;;;;;;4991413;28;20397;-57
2021/09/11 01:20:35;;;;;;;10.77;6.18;;;16.70;99.90;;;;;;4992504;28;20102;-58
2021/09/11 01:23:00;;;;;;;13.45;5.90;;;16.70;99.90;;;;;;4985129;28;20030;-56
2021/09/11 01:25:26;;;;;;;7.03;5.57;;;16.70;99.90;;;;;;4989909;28;20379;-57
2021/09/11 01:27:52;;;;;;;14.88;6.30;;;16.80;99.90;;;;;;4987231;28;20383;-58
2021/09/11 01:30:20;;;;;;;18.35;6.70;;;16.80;99.90;;;;;;4989601;28;20812;-56
2021/09/11 01:32:48;;;;;;;10.27;5.60;;;16.90;99.90;;;;;;4991747;28;20524;-57
2021/09/11 01:35:14;;;;;;;12.48;6.25;;;16.90;99.90;;;;;;4991448;28;20061;-56
2021/09/11 01:37:40;;;;;;;14.55;5.40;;;16.90;99.90;;;;;;5015053;28;20022;-58
2021/09/11 01:40:07;;;;;;;15.57;5.85;;;16.90;99.90;;;;;;4984323;28;20547;-58
2021/09/11 01:42:33;;;;;;;14.85;6.30;;;16.90;99.90;;;;;;4983768;28;20504;-59
2021/09/11 01:45:13;;;;;;;12.90;5.88;;;17.00;99.90;;;;;;4991061;28;20038;-59
2021/09/11 01:47:39;;;;;;;14.18;5.47;;;16.90;99.90;;;;;;4991745;28;20030;-59
2021/09/11 01:50:07;;;;;;;16.45;6.63;;;16.90;99.90;;;;;;4986143;28;20505;-55
2021/09/11 01:52:33;;;;;;;10.70;5.57;;;16.90;99.90;;;;;;4987562;28;20093;-59
2021/09/11 01:54:59;;;;;;;8.80;5.88;;;16.90;99.90;;;;;;4991829;28;20413;-57
2021/09/11 01:57:24;;;;;;;13.45;6.25;;;16.90;99.90;;;;;;4989446;28;20011;-59
2021/09/11 01:59:50;;;;;;;8.18;5.32;;;16.90;99.90;;;;;;4991660;28;20054;-57
2021/09/11 02:02:16;;;;;;;12.00;6.35;;;16.90;99.90;;;;;;4992170;28;20026;-56
2021/09/11 02:04:41;;;;;;;15.73;6.35;;;16.90;99.90;;;;;;4990661;28;20036;-55
2021/09/11 02:07:07;;;;;;;16.67;6.68;;;17.00;99.90;;;;;;4990630;28;20045;-58
2021/09/11 02:09:35;;;;;;;13.27;6.05;;;17.00;99.90;;;;;;4991847;28;20495;-57
2021/09/11 02:12:01;;;;;;;12.25;6.07;;;17.00;99.90;;;;;;4986674;28;20061;-59
2021/09/11 02:14:27;;;;;;;9.95;5.90;;;17.00;99.90;;;;;;4990017;28;20049;-55
2021/09/11 02:16:53;;;;;;;13.02;5.43;;;17.00;99.90;;;;;;4990868;28;20040;-58
2021/09/11 02:19:19;;;;;;;15.77;6.20;;;17.10;99.90;;;;;;4991561;28;20026;-57
2021/09/11 02:21:45;;;;;;;10.95;6.30;;;17.10;99.90;;;;;;4992326;28;20105;-57
2021/09/11 02:24:10;;;;;;;7.57;5.75;;;17.00;99.90;;;;;;4992212;28;20030;-58
2021/09/11 02:26:37;;;;;;;16.13;6.20;;;17.00;99.90;;;;;;4992199;28;20049;-58
2021/09/11 02:29:04;;;;;;;10.77;6.13;;;17.00;99.90;;;;;;4989162;28;20045;-58
2021/09/11 02:31:30;;;;;;;12.52;6.30;;;17.00;99.90;;;;;;4986454;28;20027;-57
2021/09/11 02:33:55;;;;;;;12.65;6.82;;;17.00;99.90;;;;;;4983838;28;20030;-58
2021/09/11 02:36:21;;;;;;;11.82;7.32;;;17.10;99.90;;;;;;4991270;28;20053;-59
2021/09/11 02:38:46;;;;;;;11.18;6.90;;;17.10;99.90;;;;;;4990011;28;20034;-58
2021/09/11 02:41:12;;;;;;;14.65;7.18;;;17.10;99.90;;;;;;4991750;28;20482;-57
2021/09/11 02:43:38;;;;;;;9.80;6.40;;;17.20;99.90;;;;;;4989087;28;20092;-58
2021/09/11 02:46:04;;;;;;;14.63;6.65;;;17.20;99.90;;;;;;4991918;28;20034;-59
2021/09/11 02:48:29;;;;;;;12.20;7.00;;;17.20;99.90;;;;;;4990575;28;20097;-57
2021/09/11 02:50:55;;;;;;;12.45;7.28;;;17.20;99.90;;;;;;4987852;28;20058;-58
2021/09/11 02:53:20;;;;;;;11.98;7.75;;;17.20;99.90;;;;;;4991027;28;20504;-58
2021/09/11 02:55:46;;;;;;;13.15;6.25;;;17.30;99.90;;;;;;4991019;28;20027;-58
2021/09/11 02:58:12;;;;;;;13.73;6.97;;;17.30;99.90;;;;;;4988496;28;20030;-56
2021/09/11 03:00:37;;;;;;;10.43;6.68;;;17.30;99.90;;;;;;4985109;28;20034;-59
2021/09/11 03:03:03;;;;;;;14.90;7.15;;;17.30;99.90;;;;;;4990437;28;20036;-57
2021/09/11 03:05:28;;;;;;;10.55;6.95;;;17.30;99.90;;;;;;4989013;28;20509;-57
2021/09/11 03:07:54;;;;;;;12.75;6.65;;;17.30;99.90;;;;;;4989561;28;20056;-58
2021/09/11 03:10:20;;;;;;;20.50;8.10;;;17.30;99.90;;;;;;4990700;28;20038;-58
2021/09/11 03:12:45;;;;;;;10.48;7.75;;;17.30;99.90;;;;;;4987811;28;20093;-58
2021/09/11 03:15:12;;;;;;;9.50;7.43;;;17.40;99.90;;;;;;4991385;28;20073;-55
2021/09/11 03:17:38;;;;;;;10.68;7.47;;;17.40;99.90;;;;;;4990658;28;20014;-56
2021/09/11 03:20:04;;;;;;;12.20;7.53;;;17.40;99.90;;;;;;4986670;28;20474;-58
2021/09/11 03:22:29;;;;;;;9.73;7.07;;;17.40;99.90;;;;;;4996134;28;20513;-56
2021/09/11 03:24:55;;;;;;;18.40;8.05;;;17.40;99.90;;;;;;4988929;28;20164;-58
2021/09/11 03:27:20;;;;;;;14.68;8.90;;;17.40;99.90;;;;;;4990387;28;20042;-56
2021/09/11 03:29:46;;;;;;;12.32;8.40;;;17.40;99.90;;;;;;4988713;28;20397;-58
2021/09/11 03:32:12;;;;;;;16.77;8.82;;;17.40;99.90;;;;;;4989311;28;20481;-57
2021/09/11 03:34:37;;;;;;;19.52;9.25;;;17.40;99.90;;;;;;4987774;28;20033;-58
2021/09/11 03:37:03;;;;;;;11.38;8.15;;;17.40;99.90;;;;;;4985472;28;20057;-55
2021/09/11 03:39:29;;;;;;;19.98;9.82;;;17.40;99.90;;;;;;4987734;28;20057;-56
2021/09/11 03:41:55;;;;;;;20.98;9.75;;;17.40;99.90;;;;;;4986513;28;20410;-58
2021/09/11 03:44:21;;;;;;;16.20;10.32;;;17.40;99.90;;;;;;4989828;28;20030;-58
2021/09/11 03:46:46;;;;;;;12.45;9.25;;;17.40;99.90;;;;;;4989198;28;20038;-59
2021/09/11 03:49:12;;;;;;;13.75;9.63;;;17.40;99.90;;;;;;4986100;28;20027;-56
2021/09/11 03:51:38;;;;;;;14.25;9.65;;;17.40;99.90;;;;;;4987458;28;20038;-56
2021/09/11 03:54:03;;;;;;;18.00;10.15;;;17.40;99.90;;;;;;4981781;28;20030;-58
2021/09/11 03:56:29;;;;;;;13.98;9.73;;;17.30;99.90;;;;;;4985580;28;20023;-57
2021/09/11 03:58:55;;;;;;;16.42;11.15;;;17.40;99.90;;;;;;4987836;28;20498;-58
2021/09/11 04:01:21;;;;;;;22.02;13.35;;;17.40;99.90;;;;;;4986487;28;20034;-56
2021/09/11 04:03:46;;;;;;;27.23;14.73;;;17.40;99.90;;;;;;4989571;28;20081;-57
2021/09/11 04:06:12;;;;;;;27.73;18.13;;;17.40;99.90;;;;;;4989652;28;20497;-58
2021/09/11 04:08:38;;;;;;;23.23;17.20;;;17.40;99.90;;;;;;4989835;28;20490;-56
2021/09/11 04:11:04;;;;;;;27.33;17.45;;;17.40;99.90;;;;;;4989721;28;20045;-58
2021/09/11 04:13:29;;;;;;;26.58;16.27;;;17.40;99.90;;;;;;4989382;28;20026;-56
2021/09/11 04:15:56;;;;;;;24.33;15.85;;;17.40;99.90;;;;;;4990411;28;20061;-57
2021/09/11 04:18:21;;;;;;;19.77;13.88;;;17.40;99.90;;;;;;4989236;28;20034;-58
2021/09/11 04:20:47;;;;;;;20.13;14.60;;;17.40;99.90;;;;;;4986346;28;20101;-58
2021/09/11 04:23:13;;;;;;;26.85;13.60;;;17.40;99.90;;;;;;4989509;28;20437;-57
2021/09/11 04:25:38;;;;;;;19.90;13.35;;;17.40;99.90;;;;;;4985532;28;20065;-57
2021/09/11 04:28:04;;;;;;;18.33;11.73;;;17.40;99.90;;;;;;4988295;28;20034;-55
2021/09/11 04:30:30;;;;;;;20.27;12.88;;;17.40;99.90;;;;;;4988716;28;20030;-58
2021/09/11 04:32:55;;;;;;;23.58;16.23;;;17.40;99.90;;;;;;4988874;28;20494;-57
2021/09/11 04:35:21;;;;;;;29.80;19.55;;;17.50;99.90;;;;;;4990143;28;20136;-57
2021/09/11 04:37:47;;;;;;;33.90;18.42;;;17.40;99.90;;;;;;4989376;28;20024;-56
2021/09/11 04:40:13;;;;;;;33.78;19.67;;;17.40;99.90;;;;;;4989034;28;20029;-59
2021/09/11 04:42:38;;;;;;;32.35;19.27;;;17.50;99.90;;;;;;4983939;28;20057;-57
2021/09/11 04:45:05;;;;;;;33.10;21.52;;;17.50;99.90;;;;;;4989636;28;20030;-57
2021/09/11 04:47:30;;;;;;;35.10;22.17;;;17.40;99.90;;;;;;4989118;28;20120;-57
2021/09/11 04:49:56;;;;;;;33.15;21.73;;;17.50;99.90;;;;;;4989116;28;20084;-57
2021/09/11 04:52:21;;;;;;;32.63;20.20;;;17.40;99.90;;;;;;4988497;28;20061;-58
2021/09/11 04:54:47;;;;;;;32.22;18.70;;;17.40;99.90;;;;;;4987122;28;20031;-57
2021/09/11 04:57:12;;;;;;;26.88;18.27;;;17.40;99.90;;;;;;4989805;28;20027;-57
2021/09/11 04:59:38;;;;;;;27.75;19.23;;;17.30;99.90;;;;;;4988657;28;20037;-55
2021/09/11 05:02:04;;;;;;;33.75;19.05;;;17.30;99.90;;;;;;4988719;28;20030;-58
2021/09/11 05:04:29;;;;;;;31.33;19.02;;;17.30;99.90;;;;;;4987582;28;20109;-58
2021/09/11 05:06:55;;;;;;;35.28;18.35;;;17.30;99.90;;;;;;4988849;28;20026;-58
2021/09/11 05:09:21;;;;;;;27.33;18.25;;;17.30;99.90;;;;;;4988672;28;20505;-55
2021/09/11 05:11:47;;;;;;;27.33;15.95;;;17.30;99.90;;;;;;4989360;28;20034;-56
2021/09/11 05:14:12;;;;;;;30.85;17.15;;;17.30;99.90;;;;;;4991189;28;20417;-57
2021/09/11 05:16:38;;;;;;;27.90;17.55;;;17.30;99.90;;;;;;4992507;28;20014;-58
2021/09/11 05:19:03;;;;;;;26.35;17.85;;;17.30;99.90;;;;;;4991586;28;20058;-58
2021/09/11 05:21:29;;;;;;;27.85;18.15;;;17.20;99.90;;;;;;4992187;28;20028;-59
2021/09/11 05:23:55;;;;;;;28.67;16.45;;;17.20;99.90;;;;;;4991924;28;20054;-59
2021/09/11 05:26:20;;;;;;;26.38;16.60;;;17.20;99.90;;;;;;4992756;28;20034;-58
2021/09/11 05:28:46;;;;;;;26.50;15.70;;;17.20;99.90;;;;;;4990078;28;20065;-58
2021/09/11 05:31:11;;;;;;;28.98;17.48;;;17.10;99.90;;;;;;4992234;28;20037;-57
2021/09/11 05:33:37;;;;;;;29.17;16.38;;;17.20;99.90;;;;;;4990750;28;20033;-57
2021/09/11 05:36:03;;;;;;;24.08;14.98;;;17.20;99.90;;;;;;4992841;28;20026;-58
2021/09/11 05:38:28;;;;;;;23.48;14.02;;;17.20;99.90;;;;;;4990796;28;20024;-58
2021/09/11 05:40:54;;;;;;;21.70;14.90;;;17.20;99.90;;;;;;4991057;28;20508;-57
2021/09/11 05:43:19;;;;;;;17.48;13.88;;;17.20;99.90;;;;;;4991929;28;20436;-58
2021/09/11 05:45:45;;;;;;;21.05;14.25;;;17.20;99.90;;;;;;4992874;28;20502;-59
2021/09/11 05:48:10;;;;;;;33.40;14.60;;;17.20;99.90;;;;;;4990080;28;20034;-58
2021/09/11 05:50:36;;;;;;;23.67;13.20;;;17.20;99.90;;;;;;4991627;28;20033;-59
2021/09/11 05:53:02;;;;;;;30.40;13.93;;;17.20;99.90;;;;;;4991503;28;20497;-59
2021/09/11 05:55:28;;;;;;;17.00;12.75;;;17.30;99.90;;;;;;4992245;28;20029;-58
2021/09/11 05:57:53;;;;;;;19.48;12.80;;;17.30;99.90;;;;;;4990889;28;20061;-59
2021/09/11 06:00:19;;;;;;;15.57;10.68;;;17.30;99.90;;;;;;4989437;28;20037;-57
2021/09/11 06:02:45;;;;;;;17.20;11.55;;;17.30;99.90;;;;;;4991811;28;20139;-57
2021/09/11 06:05:11;;;;;;;13.45;9.95;;;17.40;99.90;;;;;;4991127;28;20037;-59
2021/09/11 06:07:37;;;;;;;15.57;11.20;;;17.40;99.90;;;;;;4992125;28;20273;-57
2021/09/11 06:10:04;;;;;;;16.42;10.13;;;17.40;99.90;;;;;;4990439;28;20038;-58
2021/09/11 06:12:29;;;;;;;13.07;9.93;;;17.40;99.90;;;;;;4991935;28;20030;-58
2021/09/11 06:14:55;;;;;;;13.05;9.43;;;17.50;99.90;;;;;;4987774;28;20026;-59
2021/09/11 06:17:21;;;;;;;14.00;8.07;;;17.40;99.90;;;;;;4990500;28;20037;-59
2021/09/11 06:19:46;;;;;;;13.85;7.22;;;17.50;99.90;;;;;;4989064;28;20498;-59
2021/09/11 06:22:13;;;;;;;14.13;8.85;;;17.50;99.90;;;;;;4991720;28;20405;-59
2021/09/11 06:24:40;;;;;;;13.55;7.22;;;17.40;99.90;;;;;;4989068;28;20832;-58
2021/09/11 06:27:06;;;;;;;9.07;7.13;;;17.50;99.90;;;;;;4988688;28;20038;-55
2021/09/11 06:29:32;;;;;;;10.52;6.50;;;17.60;99.90;;;;;;4987329;28;20046;-58
2021/09/11 06:31:57;;;;;;;7.88;6.30;;;17.60;99.90;;;;;;4985859;28;20505;-58
2021/09/11 06:34:23;;;;;;;13.13;6.40;;;17.80;99.90;;;;;;4991607;28;20058;-59
2021/09/11 06:36:49;;;;;;;10.80;6.45;;;18.00;99.90;;;;;;4989866;28;20034;-58
2021/09/11 06:39:15;;;;;;;8.15;5.38;;;18.30;99.90;;;;;;4987782;28;20038;-58
2021/09/11 06:41:40;;;;;;;6.70;5.18;;;18.40;99.90;;;;;;4986149;28;20050;-59
2021/09/11 06:44:06;;;;;;;11.07;4.60;;;18.60;99.90;;;;;;4986046;28;20388;-59
2021/09/11 06:46:32;;;;;;;10.13;5.20;;;18.50;99.90;;;;;;4991176;28;20394;-59
2021/09/11 06:48:57;;;;;;;9.48;4.50;;;18.60;99.90;;;;;;4990358;28;20092;-59
2021/09/11 06:51:23;;;;;;;8.40;4.35;;;18.80;99.90;;;;;;4990906;28;20034;-59
2021/09/11 06:53:49;;;;;;;9.10;4.00;;;19.20;99.90;;;;;;4991067;28;20044;-59
2021/09/11 06:56:15;;;;;;;6.47;3.42;;;20.00;99.90;;;;;;4991087;28;20022;-58
2021/09/11 06:58:41;;;;;;;7.82;3.47;;;20.80;99.90;;;;;;4990392;28;20508;-59
2021/09/11 07:01:06;;;;;;;6.95;3.28;;;21.80;99.90;;;;;;4968653;28;20405;-56
2021/09/11 07:03:32;;;;;;;7.07;2.60;;;22.80;99.90;;;;;;4988822;28;20070;-59
2021/09/11 07:06:01;;;;;;;8.75;2.58;;;23.20;99.90;;;;;;4988263;28;20096;-59
2021/09/11 07:08:27;;;;;;;8.57;2.47;;;22.70;99.90;;;;;;4989576;28;20022;-59
2021/09/11 07:10:53;;;;;;;5.93;2.10;;;22.60;99.90;;;;;;4990611;28;20024;-59
2021/09/11 07:13:18;;;;;;;6.15;2.00;;;22.80;99.90;;;;;;4986194;28;20158;-59
2021/09/11 07:15:44;;;;;;;7.68;2.20;;;23.30;99.90;;;;;;4981454;28;20022;-58
2021/09/11 07:18:10;;;;;;;3.10;1.65;;;23.90;99.90;;;;;;4986970;28;20053;-61
2021/09/11 07:20:35;;;;;;;6.43;2.25;;;24.90;99.90;;;;;;4989199;28;20482;-59
2021/09/11 07:23:01;;;;;;;6.15;1.95;;;25.50;99.90;;;;;;4986197;28;20045;-59
2021/09/11 07:25:27;;;;;;;6.07;1.75;;;26.20;98.70;;;;;;4990070;28;20099;-59
2021/09/11 07:27:52;;;;;;;4.47;2.17;;;26.20;97.50;;;;;;4989762;28;20029;-60
2021/09/11 07:30:18;;;;;;;5.75;1.92;;;25.60;96.50;;;;;;4989267;28;20031;-57
2021/09/11 07:32:44;;;;;;;7.47;2.10;;;24.80;98.30;;;;;;4987941;28;20038;-59
2021/09/11 07:35:10;;;;;;;6.18;1.98;;;24.10;99.00;;;;;;4984519;28;20026;-60
2021/09/11 07:37:35;;;;;;;6.60;2.40;;;23.70;99.90;;;;;;4988697;28;20019;-59
2021/09/11 07:40:01;;;;;;;6.85;2.63;;;23.20;99.90;;;;;;4988430;28;20041;-60
2021/09/11 07:42:27;;;;;;;5.63;2.25;;;22.70;99.90;;;;;;4988495;28;20030;-60
2021/09/11 07:44:52;;;;;;;7.20;2.30;;;22.50;99.90;;;;;;4990281;28;20033;-59
2021/09/11 07:47:18;;;;;;;5.07;2.22;;;22.20;99.90;;;;;;4990311;28;20034;-60
2021/09/11 07:49:44;;;;;;;7.78;2.40;;;21.90;99.90;;;;;;4988824;28;20030;-59
2021/09/11 07:52:10;;;;;;;8.15;2.53;;;21.50;99.90;;;;;;4989620;28;20062;-59
2021/09/11 07:54:36;;;;;;;5.55;2.83;;;21.40;99.90;;;;;;4990183;28;20053;-59
2021/09/11 07:57:02;;;;;;;7.03;3.05;;;21.30;99.90;;;;;;4989252;28;20126;-60
2021/09/11 07:59:28;;;;;;;12.80;2.40;;;22.00;99.90;;;;;;4987077;28;20432;-60
2021/09/11 08:01:53;;;;;;;10.02;2.65;;;23.40;99.90;;;;;;4973929;28;20142;-60
2021/09/11 08:04:19;;;;;;;4.93;2.47;;;24.50;99.90;;;;;;4990388;28;20019;-59
2021/09/11 08:06:44;;;;;;;6.22;2.58;;;25.30;97.90;;;;;;4987970;28;20034;-58
2021/09/11 08:09:10;;;;;;;5.97;2.10;;;26.20;97.10;;;;;;4988668;28;20030;-58
2021/09/11 08:11:35;;;;;;;5.85;2.55;;;26.60;96.40;;;;;;4988711;28;20081;-57
2021/09/11 08:14:02;;;;;;;3.70;2.00;;;26.70;96.90;;;;;;4989936;28;20038;-59
2021/09/11 08:16:28;;;;;;;5.32;2.00;;;27.10;96.30;;;;;;4989390;28;20037;-58
2021/09/11 08:18:53;;;;;;;4.72;2.25;;;27.30;94.30;;;;;;5019254;28;20117;-56
2021/09/11 08:21:19;;;;;;;4.35;2.15;;;27.70;93.20;;;;;;4989711;28;20379;-59
2021/09/11 08:23:45;;;;;;;5.93;2.65;;;27.40;94.10;;;;;;4987719;28;20442;-59
2021/09/11 08:26:11;;;;;;;4.80;2.22;;;26.80;94.50;;;;;;4989140;28;20030;-60
2021/09/11 08:28:37;;;;;;;6.78;1.73;;;26.50;94.50;;;;;;4988779;28;20030;-59
2021/09/11 08:31:03;;;;;;;10.40;3.00;;;26.60;95.10;;;;;;4988576;28;20061;-57
2021/09/11 08:33:29;;;;;;;6.30;2.08;;;26.90;94.40;;;;;;4990300;28;20133;-59
2021/09/11 08:35:55;;;;;;;5.68;2.25;;;27.10;93.50;;;;;;4988864;28;20030;-59
2021/09/11 08:38:20;;;;;;;3.55;1.95;;;26.50;94.20;;;;;;4988566;28;20118;-58
2021/09/11 08:40:46;;;;;;;6.03;2.45;;;26.00;94.60;;;;;;4988465;28;20026;-59
2021/09/11 08:43:16;;;;;;;4.80;1.77;;;25.40;95.90;;;;;;4994329;28;20065;-58
2021/09/11 08:45:42;;;;;;;3.17;1.85;;;24.80;95.60;;;;;;4989218;28;20093;-59
2021/09/11 08:48:07;;;;;;;5.40;1.95;;;24.30;96.50;;;;;;4991810;28;20030;-58
2021/09/11 08:50:33;;;;;;;4.90;1.90;;;23.40;97.40;;;;;;4993559;28;20069;-57
2021/09/11 08:52:59;;;;;;;5.82;2.50;;;22.70;98.40;;;;;;4991694;28;20065;-58
2021/09/11 08:55:24;;;;;;;13.13;2.05;;;22.50;99.70;;;;;;4992654;28;20030;-55
2021/09/11 08:58:01;;;;;;;8.57;2.60;;;22.60;99.80;;;;;;4992359;28;20106;-59
2021/09/11 09:00:45;;;;;;;8.45;2.17;;;23.00;99.30;;;;;;4989576;28;20061;-58
2021/09/11 09:03:26;;;;;;;5.93;2.83;;;23.20;99.80;;;;;;5021052;28;20029;-58
2021/09/11 09:05:52;;;;;;;4.50;2.15;;;23.40;99.30;;;;;;4993468;28;20038;-59
2021/09/11 09:08:30;;;;;;;7.32;2.28;;;23.30;98.00;;;;;;4983980;28;20130;-59
2021/09/11 09:11:12;;;;;;;6.90;2.25;;;23.50;98.40;;;;;;4990523;28;20572;-57
2021/09/11 09:14:15;;;;;;;14.00;2.42;;;23.30;98.60;;;;;;4990141;28;20057;-58
2021/09/11 09:16:47;;;;;;;6.50;2.40;;;23.00;99.50;;;;;;4925999;29;20039;-59
2021/09/11 09:19:15;;;;;;;4.68;2.38;;;23.00;99.80;;;;;;4981456;28;20360;-57
2021/09/11 09:21:43;;;;;;;4.80;2.20;;;22.80;98.80;;;;;;4989674;28;20034;-59
2021/09/11 09:24:12;;;;;;;4.47;2.17;;;22.60;99.70;;;;;;5022234;28;20034;-62
2021/09/11 09:26:50;;;;;;;6.28;2.58;;;22.60;99.70;;;;;;4991456;28;20026;-58
2021/09/11 09:29:17;;;;;;;5.80;3.03;;;22.80;99.90;;;;;;4992649;28;20034;-58
2021/09/11 09:31:44;;;;;;;5.78;2.75;;;22.70;99.80;;;;;;4991819;28;20367;-57
2021/09/11 09:34:26;;;;;;;2.97;2.25;;;22.30;99.90;;;;;;4991284;28;20556;-57
2021/09/11 09:36:56;;;;;;;4.85;2.50;;;22.00;99.90;;;;;;4989785;28;20026;-59
2021/09/11 09:39:21;;;;;;;9.48;2.42;;;21.80;99.90;;;;;;4989258;28;20022;-58
2021/09/11 09:41:50;;;;;;;4.20;2.30;;;21.70;99.90;;;;;;4990159;28;20431;-58
2021/09/11 09:44:18;;;;;;;6.50;2.40;;;21.60;99.90;;;;;;4990465;28;20141;-55
2021/09/11 09:46:45;;;;;;;3.45;2.42;;;21.50;99.90;;;;;;4989965;28;20026;-60
2021/09/11 09:49:15;;;;;;;4.38;2.42;;;21.50;99.90;;;;;;4986675;28;20101;-59
2021/09/11 09:51:41;;;;;;;4.63;2.38;;;21.60;99.90;;;;;;4991740;28;20042;-58
2021/09/11 09:54:07;;;;;;;5.43;2.13;;;21.70;99.90;;;;;;4990915;28;20084;-57
2021/09/11 09:56:32;;;;;;;6.40;2.42;;;21.90;99.90;;;;;;4991509;28;20066;-57
2021/09/11 09:59:00;;;;;;;6.32;2.40;;;21.90;99.90;;;;;;4986398;28;21527;-59
2021/09/11 10:01:26;;;;;;;3.72;2.25;;;22.20;99.90;;;;;;4990850;28;20109;-58
2021/09/11 10:03:52;;;;;;;3.60;2.20;;;22.40;99.90;;;;;;4987427;28;20034;-57
2021/09/11 10:06:26;;;;;;;3.83;2.20;;;22.70;99.90;;;;;;4990586;28;20367;-60
2021/09/11 10:08:58;;;;;;;7.15;1.67;;;23.00;99.90;;;;;;4990457;28;20106;-59
2021/09/11 10:11:39;;;;;;;3.38;1.63;;;22.80;98.90;;;;;;4977671;28;20511;-58
2021/09/11 10:14:15;;;;;;;5.22;1.92;;;23.50;98.70;;;;;;4984563;28;20072;-56
2021/09/11 10:16:43;;;;;;;4.88;1.73;;;24.10;98.70;;;;;;4991295;28;20027;-58
2021/09/11 10:19:15;;;;;;;4.68;1.63;;;24.30;98.00;;;;;;4987429;28;20053;-58
2021/09/11 10:21:41;;;;;;;4.70;1.77;;;24.10;97.40;;;;;;4990096;28;20034;-58
2021/09/11 10:24:11;;;;;;;3.63;1.60;;;23.90;96.90;;;;;;4988677;28;20034;-57
2021/09/11 10:27:01;;;;;;;4.78;1.63;;;23.60;97.30;;;;;;4991085;28;20124;-55
2021/09/11 10:29:33;;;;;;;3.40;1.77;;;23.10;98.10;;;;;;4988413;28;20038;-58
2021/09/11 10:32:05;;;;;;;8.40;2.15;;;22.80;98.50;;;;;;4988417;28;20030;-57
2021/09/11 10:35:01;;;;;;;5.65;2.03;;;22.70;98.30;;;;;;4990298;28;20494;-57
2021/09/11 10:37:40;;;;;;;3.35;1.83;;;22.60;99.10;;;;;;5014086;28;20121;-58
2021/09/11 10:40:18;;;;;;;5.53;1.73;;;22.50;99.00;;;;;;4990568;28;20065;-57
2021/09/11 10:45:52;;;;;;;7.55;1.70;;;22.70;98.60;;;;;;4987296;28;20117;-58
2021/09/11 10:48:51;;;;;;;6.70;1.60;;;22.70;98.80;;;;;;4986375;28;20525;-59
2021/09/11 10:51:24;;;;;;;4.93;2.00;;;23.10;98.90;;;;;;4985567;28;20030;-58
2021/09/11 10:54:17;;;;;;;3.22;1.85;;;23.40;98.50;;;;;;4988235;28;20026;-58
2021/09/11 10:56:48;;;;;;;7.63;1.70;;;23.90;97.80;;;;;;4988176;28;20429;-59
2021/09/11 11:02:13;;;;;;;3.38;1.95;;;24.30;96.50;;;;;;4986026;28;20045;-59
2021/09/11 11:05:05;;;;;;;2.90;1.50;;;24.00;96.50;;;;;;4988669;28;20053;-56
2021/09/11 11:07:33;;;;;;;3.20;1.80;;;23.90;97.80;;;;;;4988782;28;20753;-59
2021/09/11 11:10:01;;;;;;;3.22;1.70;;;23.80;98.00;;;;;;4984182;28;20026;-58
2021/09/11 11:12:31;;;;;;;3.42;1.77;;;23.70;97.70;;;;;;4979268;28;20501;-59
2021/09/11 11:15:08;;;;;;;3.42;1.63;;;24.00;97.10;;;;;;4990630;28;20053;-59
2021/09/11 11:17:41;;;;;;;2.85;1.45;;;24.10;96.80;;;;;;4986409;28;20109;-58
2021/09/11 11:20:07;;;;;;;3.72;1.30;;;23.90;95.50;;;;;;5003438;28;20030;-57
2021/09/11 11:22:41;;;;;;;4.22;1.60;;;23.80;96.30;;;;;;4989502;28;20054;-57
2021/09/11 11:25:36;;;;;;;3.85;1.45;;;23.60;96.90;;;;;;4986681;28;20018;-58
2021/09/11 11:28:07;;;;;;;6.90;2.03;;;23.50;96.60;;;;;;4988611;28;20034;-58
2021/09/11 11:30:39;;;;;;;2.72;1.23;;;23.30;97.30;;;;;;4988017;28;20074;-56
2021/09/11 11:33:05;;;;;;;5.63;1.48;;;23.00;97.70;;;;;;4981938;28;20030;-58
2021/09/11 11:35:32;;;;;;;3.50;1.50;;;22.90;97.50;;;;;;4988462;28;20051;-58
2021/09/11 11:37:58;;;;;;;2.35;1.48;;;22.80;97.90;;;;;;4978917;28;20038;-57
2021/09/11 11:40:25;;;;;;;2.75;1.95;;;22.70;98.30;;;;;;4986624;28;20026;-56
2021/09/11 11:42:50;;;;;;;4.85;1.77;;;22.50;99.50;;;;;;4982693;28;20042;-57
2021/09/11 11:45:17;;;;;;;2.80;1.52;;;22.40;99.30;;;;;;4990011;28;20453;-58
2021/09/11 11:47:49;;;;;;;2.70;1.38;;;22.50;99.40;;;;;;4988734;28;20030;-59
2021/09/11 11:50:25;;;;;;;6.28;1.73;;;22.60;99.90;;;;;;4989660;28;20109;-58
2021/09/11 11:52:55;;;;;;;5.78;2.47;;;22.80;99.40;;;;;;4988610;28;20037;-59
2021/09/11 11:55:22;;;;;;;5.30;2.05;;;23.00;99.30;;;;;;4988593;28;20032;-59
2021/09/11 11:57:47;;;;;;;5.45;1.80;;;23.00;98.80;;;;;;4989966;28;20038;-58
2021/09/11 12:00:16;;;;;;;4.45;1.80;;;23.10;98.60;;;;;;4990247;28;20021;-59
2021/09/11 12:02:47;;;;;;;2.97;1.52;;;23.20;98.60;;;;;;4990217;28;20401;-57
2021/09/11 12:05:41;;;;;;;6.88;1.90;;;23.10;98.50;;;;;;4990525;28;20050;-57
2021/09/11 12:08:08;;;;;;;2.25;1.48;;;23.20;98.70;;;;;;4988996;28;20450;-59
2021/09/11 12:10:34;;;;;;;2.15;1.60;;;23.30;98.20;;;;;;4989266;28;20042;-59
2021/09/11 12:13:10;;;;;;;7.13;1.70;;;23.30;98.60;;;;;;4989460;28;20089;-58
2021/09/11 12:15:38;;;;;;;4.78;2.05;;;23.00;98.20;;;;;;4989861;28;20101;-59
2021/09/11 12:18:15;;;;;;;5.35;1.50;;;23.00;99.00;;;;;;4988173;28;20028;-59
2021/09/11 12:20:45;;;;;;;4.25;1.65;;;23.00;98.70;;;;;;4989694;28;20022;-59
2021/09/11 12:23:14;;;;;;;6.18;1.52;;;23.00;99.00;;;;;;4993461;28;20033;-57
2021/09/11 12:25:51;;;;;;;2.97;1.70;;;23.00;99.10;;;;;;4993988;28;20104;-59
2021/09/11 12:28:50;;;;;;;4.50;1.55;;;23.00;98.50;;;;;;4994194;28;20461;-58
2021/09/11 12:31:25;;;;;;;2.60;1.63;;;23.20;98.80;;;;;;4992222;28;20509;-59
2021/09/11 12:33:52;;;;;;;3.15;1.38;;;23.20;98.10;;;;;;4994153;28;20056;-58
2021/09/11 12:36:40;;;;;;;5.15;1.92;;;23.20;98.70;;;;;;4993446;28;20026;-57
2021/09/11 12:39:05;;;;;;;2.97;1.60;;;23.20;98.70;;;;;;4991942;28;20046;-57
2021/09/11 12:41:32;;;;;;;4.60;1.75;;;23.40;98.10;;;;;;4993538;28;20046;-58
2021/09/11 12:43:59;;;;;;;3.75;1.48;;;23.40;98.20;;;;;;4993520;28;20030;-59
2021/09/11 12:46:26;;;;;;;3.28;1.27;;;23.40;98.50;;;;;;4992619;28;20026;-59
2021/09/11 12:48:52;;;;;;;2.50;1.50;;;23.40;99.00;;;;;;4993577;28;20035;-58
2021/09/11 12:51:18;;;;;;;2.70;1.35;;;23.30;97.50;;;;;;4993034;28;20045;-58